Time;durP1;ratioP1;P1;durP2;ratioP2;P2;SDS_P1;SDS_P2;PMS_P1;PMS_P2;Temp;Humidity;BMP_temperature;BMP_pressure;BME280_temperature;BME280_humidity;BME280_pressure;Samples;Min_cycle;Max_cycle;Signal;HPM_P1;HPM_P2
2021/03/15 00:00:11;;;;;;;9.15;7.10;;;;;;;;;;5043554;28;20206;-52
2021/03/15 00:02:37;;;;;;;11.57;7.93;;;;;;;;;;5044336;28;20665;-55
2021/03/15 00:05:04;;;;;;;12.05;7.63;;;;;;;;;;5045688;28;20171;-54
2021/03/15 00:07:37;;;;;;;14.27;8.18;;;;;;;;;;5044809;28;20229;-55
2021/03/15 00:10:03;;;;;;;13.32;8.18;;;;;;;;;;5045509;28;20247;-54
2021/03/15 00:12:29;;;;;;;12.77;8.70;;;;;;;;;;5042253;28;20175;-55
2021/03/15 00:14:56;;;;;;;12.83;8.00;;;;;;;;;;5039158;28;20276;-50
2021/03/15 00:17:22;;;;;;;11.80;8.65;;;;;;;;;;5036950;28;20442;-51
2021/03/15 00:19:48;;;;;;;12.60;8.97;;;;;;;;;;5036438;28;20202;-53
2021/03/15 00:22:14;;;;;;;13.75;9.23;;;;;;;;;;5036789;28;20434;-52
2021/03/15 00:24:40;;;;;;;18.50;8.03;;;;;;;;;;5036048;28;20650;-54
2021/03/15 00:27:06;;;;;;;18.02;8.38;;;;;;;;;;5035655;28;20446;-54
2021/03/15 00:29:33;;;;;;;14.43;8.50;;;;;;;;;;5035751;28;20214;-54
2021/03/15 00:31:59;;;;;;;15.52;8.95;;;;;;;;;;5035278;28;20407;-53
2021/03/15 00:34:25;;;;;;;12.65;8.23;;;;;;;;;;5034414;28;20249;-53
2021/03/15 00:36:51;;;;;;;20.00;9.30;;;;;;;;;;5034906;28;20290;-53
2021/03/15 00:39:17;;;;;;;14.87;8.40;;;;;;;;;;5035081;28;20195;-53
2021/03/15 00:41:43;;;;;;;13.68;8.25;;;;;;;;;;5032134;28;20497;-53
2021/03/15 00:44:11;;;;;;;11.77;8.60;;;;;;;;;;5034526;28;20160;-52
2021/03/15 00:46:37;;;;;;;13.68;8.20;;;;;;;;;;5035022;28;20266;-53
2021/03/15 00:49:03;;;;;;;10.33;7.93;;;;;;;;;;5034592;28;20655;-52
2021/03/15 00:51:29;;;;;;;14.07;8.10;;;;;;;;;;5034660;28;20410;-52
2021/03/15 00:53:55;;;;;;;24.60;10.70;;;;;;;;;;5034940;28;20179;-52
2021/03/15 00:56:21;;;;;;;15.18;9.25;;;;;;;;;;5034873;28;20441;-56
2021/03/15 00:58:47;;;;;;;15.50;9.43;;;;;;;;;;5034831;28;20600;-53
2021/03/15 01:01:16;;;;;;;17.23;9.70;;;;;;;;;;5034798;28;20406;-54
2021/03/15 01:03:42;;;;;;;18.67;10.70;;;;;;;;;;5034778;28;20406;-54
2021/03/15 01:06:09;;;;;;;21.83;10.93;;;;;;;;;;5034820;28;20160;-56
2021/03/15 01:08:35;;;;;;;15.80;10.35;;;;;;;;;;5034330;28;20465;-55
2021/03/15 01:11:01;;;;;;;16.10;10.93;;;;;;;;;;5034383;28;20171;-52
2021/03/15 01:13:30;;;;;;;17.77;11.23;;;;;;;;;;5029637;28;20857;-54
2021/03/15 01:15:56;;;;;;;21.02;11.85;;;;;;;;;;5034782;28;20175;-53
2021/03/15 01:18:22;;;;;;;20.67;12.77;;;;;;;;;;5034292;28;20191;-55
2021/03/15 01:20:48;;;;;;;19.13;11.47;;;;;;;;;;5034419;28;20894;-53
2021/03/15 01:23:14;;;;;;;18.93;12.93;;;;;;;;;;5034394;28;20584;-53
2021/03/15 01:25:41;;;;;;;18.17;10.93;;;;;;;;;;5034075;28;20406;-53
2021/03/15 01:28:09;;;;;;;20.75;11.73;;;;;;;;;;5034317;28;20472;-53
2021/03/15 01:30:36;;;;;;;18.20;12.40;;;;;;;;;;5034359;28;20241;-53
2021/03/15 01:33:03;;;;;;;19.42;11.00;;;;;;;;;;5033961;28;20699;-53
2021/03/15 01:35:29;;;;;;;18.35;11.32;;;;;;;;;;5033520;28;20179;-54
2021/03/15 01:37:55;;;;;;;21.80;11.90;;;;;;;;;;5032348;28;20179;-54
2021/03/15 01:40:21;;;;;;;20.33;11.23;;;;;;;;;;5033886;28;20254;-54
2021/03/15 01:42:47;;;;;;;18.77;10.25;;;;;;;;;;5030223;28;20318;-56
2021/03/15 01:45:13;;;;;;;12.47;9.20;;;;;;;;;;5034018;28;20212;-53
2021/03/15 01:47:41;;;;;;;18.17;8.98;;;;;;;;;;5033465;28;20449;-54
2021/03/15 01:50:08;;;;;;;16.67;8.90;;;;;;;;;;5033527;28;20183;-54
2021/03/15 01:52:35;;;;;;;16.52;8.60;;;;;;;;;;5033452;28;20221;-54
2021/03/15 01:55:02;;;;;;;15.75;8.57;;;;;;;;;;5033885;28;20175;-57
2021/03/15 01:57:28;;;;;;;12.93;7.60;;;;;;;;;;5033672;28;20651;-54
2021/03/15 01:59:54;;;;;;;11.20;7.00;;;;;;;;;;5033776;28;20293;-53
2021/03/15 02:02:20;;;;;;;11.63;7.80;;;;;;;;;;5033353;28;20220;-53
2021/03/15 02:04:46;;;;;;;11.45;7.22;;;;;;;;;;5032855;28;20909;-51
2021/03/15 02:07:12;;;;;;;7.28;5.60;;;;;;;;;;5033382;28;20236;-54
2021/03/15 02:09:38;;;;;;;15.57;6.75;;;;;;;;;;5033648;28;20202;-54
2021/03/15 02:12:10;;;;;;;10.60;6.28;;;;;;;;;;5033640;28;20174;-55
2021/03/15 02:14:44;;;;;;;11.73;6.45;;;;;;;;;;5030171;28;20190;-52
2021/03/15 02:17:32;;;;;;;9.82;7.10;;;;;;;;;;5033635;28;20178;-52
2021/03/15 02:20:04;;;;;;;11.00;6.30;;;;;;;;;;5035766;28;20187;-52
2021/03/15 02:22:38;;;;;;;8.02;6.35;;;;;;;;;;5038054;28;20187;-53
2021/03/15 02:25:04;;;;;;;10.55;6.93;;;;;;;;;;5037623;28;20706;-60
2021/03/15 02:27:44;;;;;;;13.85;8.90;;;;;;;;;;5037223;28;20203;-52
2021/03/15 02:30:10;;;;;;;10.07;6.85;;;;;;;;;;5036831;28;20171;-53
2021/03/15 02:32:39;;;;;;;14.20;7.40;;;;;;;;;;5037388;28;20251;-52
2021/03/15 02:35:07;;;;;;;9.30;7.05;;;;;;;;;;5038296;28;20914;-52
2021/03/15 02:37:35;;;;;;;9.50;7.53;;;;;;;;;;5037279;28;20566;-53
2021/03/15 02:40:04;;;;;;;14.65;8.60;;;;;;;;;;5037210;28;20194;-52
2021/03/15 02:42:31;;;;;;;17.08;7.88;;;;;;;;;;5037077;28;20176;-63
2021/03/15 02:44:58;;;;;;;9.93;6.75;;;;;;;;;;5034061;28;20537;-54
2021/03/15 02:47:29;;;;;;;15.90;7.80;;;;;;;;;;5036619;28;20685;-54
2021/03/15 02:50:06;;;;;;;11.45;7.50;;;;;;;;;;5037147;28;20207;-51
2021/03/15 02:52:35;;;;;;;15.02;8.35;;;;;;;;;;5037218;28;20174;-51
2021/03/15 02:55:01;;;;;;;12.65;7.38;;;;;;;;;;5037327;28;20173;-55
2021/03/15 02:57:29;;;;;;;12.60;8.60;;;;;;;;;;5036403;28;20714;-51
2021/03/15 02:59:55;;;;;;;16.75;9.50;;;;;;;;;;5036729;28;20195;-52
2021/03/15 03:02:22;;;;;;;12.70;9.68;;;;;;;;;;5036865;28;20210;-60
2021/03/15 03:04:48;;;;;;;14.68;8.90;;;;;;;;;;5036953;28;20198;-53
2021/03/15 03:07:16;;;;;;;12.93;10.27;;;;;;;;;;5036685;28;20238;-53
2021/03/15 03:09:44;;;;;;;13.68;8.70;;;;;;;;;;5036416;28;20667;-53
2021/03/15 03:12:12;;;;;;;16.30;10.80;;;;;;;;;;5036330;28;20247;-52
2021/03/15 03:14:40;;;;;;;13.75;9.98;;;;;;;;;;5033808;28;20175;-54
2021/03/15 03:17:06;;;;;;;15.70;9.40;;;;;;;;;;5036582;28;20179;-53
2021/03/15 03:19:32;;;;;;;14.85;11.10;;;;;;;;;;5036161;28;20859;-53
2021/03/15 03:21:59;;;;;;;13.77;9.57;;;;;;;;;;5032070;28;20710;-52
2021/03/15 03:24:27;;;;;;;16.45;10.68;;;;;;;;;;5035757;28;20184;-54
2021/03/15 03:26:54;;;;;;;13.32;10.02;;;;;;;;;;5036026;28;20207;-53
2021/03/15 03:29:20;;;;;;;15.18;9.02;;;;;;;;;;5035466;28;20211;-54
2021/03/15 03:31:47;;;;;;;15.40;9.57;;;;;;;;;;5034917;28;20242;-54
2021/03/15 03:34:13;;;;;;;15.77;10.88;;;;;;;;;;5034926;28;20582;-54
2021/03/15 03:36:39;;;;;;;12.82;9.98;;;;;;;;;;5035217;28;20191;-54
2021/03/15 03:39:09;;;;;;;16.75;10.93;;;;;;;;;;5034173;28;20183;-53
2021/03/15 03:41:36;;;;;;;14.05;9.90;;;;;;;;;;5034418;28;20528;-54
2021/03/15 03:44:07;;;;;;;18.50;10.60;;;;;;;;;;5032512;28;20789;-54
2021/03/15 03:46:33;;;;;;;16.27;9.32;;;;;;;;;;5035298;28;20237;-54
2021/03/15 03:49:00;;;;;;;15.32;9.95;;;;;;;;;;5036103;28;20196;-53
2021/03/15 03:51:29;;;;;;;14.05;9.95;;;;;;;;;;5035880;28;20181;-54
2021/03/15 03:53:55;;;;;;;13.73;9.15;;;;;;;;;;5036522;28;20270;-53
2021/03/15 03:56:24;;;;;;;16.97;10.90;;;;;;;;;;5036287;28;20199;-54
2021/03/15 03:58:52;;;;;;;12.55;9.80;;;;;;;;;;5035469;28;20933;-53
2021/03/15 04:01:22;;;;;;;15.23;10.65;;;;;;;;;;5035591;28;20242;-53
2021/03/15 04:03:52;;;;;;;17.15;10.50;;;;;;;;;;5035668;28;20168;-54
2021/03/15 04:06:18;;;;;;;20.42;10.90;;;;;;;;;;5035816;28;20163;-53
2021/03/15 04:08:50;;;;;;;14.65;11.60;;;;;;;;;;5035596;28;20765;-53
2021/03/15 04:11:19;;;;;;;20.40;12.00;;;;;;;;;;5036242;28;20174;-53
2021/03/15 04:13:48;;;;;;;19.13;12.38;;;;;;;;;;5036141;28;20187;-53
2021/03/15 04:16:14;;;;;;;21.70;12.95;;;;;;;;;;5032137;28;20193;-53
2021/03/15 04:18:45;;;;;;;17.83;13.13;;;;;;;;;;5035654;28;20195;-53
2021/03/15 04:21:12;;;;;;;16.02;11.98;;;;;;;;;;5035860;28;20235;-52
2021/03/15 04:23:39;;;;;;;14.63;11.95;;;;;;;;;;5036190;28;20198;-54
2021/03/15 04:26:05;;;;;;;16.83;11.15;;;;;;;;;;5035412;28;20236;-53
2021/03/15 04:28:34;;;;;;;20.35;13.48;;;;;;;;;;5035144;28;20253;-53
2021/03/15 04:31:00;;;;;;;23.05;13.82;;;;;;;;;;5035924;28;20163;-54
2021/03/15 04:33:27;;;;;;;20.20;14.52;;;;;;;;;;5035785;28;20167;-55
2021/03/15 04:35:53;;;;;;;23.42;13.63;;;;;;;;;;5036028;28;20179;-53
2021/03/15 04:38:20;;;;;;;24.27;13.82;;;;;;;;;;5034675;28;20199;-54
2021/03/15 04:40:48;;;;;;;17.90;14.23;;;;;;;;;;5036072;28;20235;-53
2021/03/15 04:43:14;;;;;;;22.88;15.05;;;;;;;;;;5034855;28;20533;-54
2021/03/15 04:45:45;;;;;;;18.70;13.10;;;;;;;;;;5032319;28;20198;-53
2021/03/15 04:48:21;;;;;;;19.65;13.95;;;;;;;;;;5035275;28;20682;-53
2021/03/15 04:50:50;;;;;;;19.52;13.77;;;;;;;;;;5035471;28;20167;-53
2021/03/15 04:53:18;;;;;;;20.52;14.05;;;;;;;;;;5035240;28;20570;-54
2021/03/15 04:55:44;;;;;;;22.67;15.65;;;;;;;;;;5035008;28;20174;-54
2021/03/15 04:58:12;;;;;;;19.42;13.30;;;;;;;;;;5035057;28;20195;-54
2021/03/15 05:00:39;;;;;;;22.55;15.68;;;;;;;;;;5035000;28;20182;-57
2021/03/15 05:03:07;;;;;;;21.67;14.65;;;;;;;;;;5034858;28;20186;-54
2021/03/15 05:05:34;;;;;;;19.98;13.85;;;;;;;;;;5035027;28;20207;-52
2021/03/15 05:08:02;;;;;;;13.18;11.23;;;;;;;;;;5034618;28;20221;-53
2021/03/15 05:10:28;;;;;;;12.35;10.77;;;;;;;;;;5034308;28;20179;-53
2021/03/15 05:12:54;;;;;;;12.27;9.15;;;;;;;;;;5034846;28;20684;-54
2021/03/15 05:15:20;;;;;;;11.82;9.38;;;;;;;;;;5034567;28;20237;-54
2021/03/15 05:17:48;;;;;;;11.65;8.25;;;;;;;;;;5030412;28;20180;-54
2021/03/15 05:20:15;;;;;;;8.13;6.80;;;;;;;;;;5034173;28;20225;-53
2021/03/15 05:22:44;;;;;;;12.90;7.35;;;;;;;;;;5034091;28;20194;-53
2021/03/15 05:25:13;;;;;;;9.73;7.95;;;;;;;;;;5034266;28;20246;-53
2021/03/15 05:27:43;;;;;;;10.07;7.90;;;;;;;;;;5033651;28;20284;-54
2021/03/15 05:30:11;;;;;;;8.23;6.22;;;;;;;;;;5034277;28;20242;-54
2021/03/15 05:32:40;;;;;;;8.43;5.38;;;;;;;;;;5034195;28;20174;-53
2021/03/15 05:35:06;;;;;;;5.78;4.45;;;;;;;;;;5034352;28;20167;-54
2021/03/15 05:37:33;;;;;;;4.93;4.45;;;;;;;;;;5033983;28;20213;-53
2021/03/15 05:39:59;;;;;;;5.05;4.50;;;;;;;;;;5034451;28;20195;-53
2021/03/15 05:42:30;;;;;;;4.25;3.85;;;;;;;;;;5034433;28;20182;-54
2021/03/15 05:45:10;;;;;;;4.45;4.05;;;;;;;;;;5034786;28;20175;-51
2021/03/15 05:47:48;;;;;;;5.22;4.70;;;;;;;;;;5028929;28;20222;-52
2021/03/15 05:50:33;;;;;;;4.50;4.10;;;;;;;;;;5034183;28;20221;-54
2021/03/15 05:53:18;;;;;;;5.70;4.60;;;;;;;;;;5033951;28;20183;-53
2021/03/15 05:55:53;;;;;;;6.45;5.13;;;;;;;;;;5034240;28;20170;-54
2021/03/15 05:58:19;;;;;;;5.50;4.75;;;;;;;;;;5033812;28;20654;-54
2021/03/15 06:00:54;;;;;;;5.90;4.93;;;;;;;;;;5033894;28;20172;-54
2021/03/15 06:03:20;;;;;;;5.68;5.10;;;;;;;;;;5034034;28;20954;-53
2021/03/15 06:05:48;;;;;;;5.07;4.57;;;;;;;;;;5034084;28;20168;-62
2021/03/15 06:08:23;;;;;;;6.25;4.90;;;;;;;;;;5034095;28;20454;-52
2021/03/15 06:10:52;;;;;;;6.60;4.90;;;;;;;;;;5034058;28;20590;-54
2021/03/15 06:13:19;;;;;;;5.57;5.03;;;;;;;;;;5033502;28;20170;-54
2021/03/15 06:15:46;;;;;;;6.88;5.10;;;;;;;;;;5033995;28;20179;-53
2021/03/15 06:18:15;;;;;;;13.10;6.85;;;;;;;;;;5028511;28;20195;-54
2021/03/15 06:20:42;;;;;;;10.20;6.55;;;;;;;;;;5033411;28;20203;-55
2021/03/15 06:23:08;;;;;;;8.80;6.80;;;;;;;;;;5033721;28;20172;-57
2021/03/15 06:25:35;;;;;;;9.30;6.73;;;;;;;;;;5032854;28;20708;-53
2021/03/15 06:28:01;;;;;;;17.85;9.38;;;;;;;;;;5033331;28;20458;-52
2021/03/15 06:30:28;;;;;;;12.68;8.65;;;;;;;;;;5033811;28;20532;-54
2021/03/15 06:32:55;;;;;;;12.05;9.30;;;;;;;;;;5034580;28;20171;-49
2021/03/15 06:35:24;;;;;;;17.65;10.77;;;;;;;;;;5034486;28;20183;-55
2021/03/15 06:37:50;;;;;;;12.68;9.18;;;;;;;;;;5034293;28;20210;-52
2021/03/15 06:40:18;;;;;;;14.55;9.45;;;;;;;;;;5035270;28;20168;-51
2021/03/15 06:42:45;;;;;;;13.48;9.93;;;;;;;;;;5034077;28;20180;-52
2021/03/15 06:45:15;;;;;;;14.70;9.63;;;;;;;;;;5034128;28;20179;-50
2021/03/15 06:47:43;;;;;;;18.55;11.75;;;;;;;;;;5031324;28;20203;-52
2021/03/15 06:50:09;;;;;;;16.88;12.57;;;;;;;;;;5034487;28;20651;-51
2021/03/15 06:52:54;;;;;;;18.88;12.40;;;;;;;;;;5034114;28;20627;-54
2021/03/15 06:55:24;;;;;;;23.77;13.60;;;;;;;;;;5033992;28;20203;-52
2021/03/15 06:57:51;;;;;;;18.52;13.55;;;;;;;;;;5034635;28;20182;-54
2021/03/15 07:00:21;;;;;;;21.00;13.50;;;;;;;;;;5034398;28;20180;-50
2021/03/15 07:03:00;;;;;;;18.60;13.40;;;;;;;;;;5034418;28;20677;-50
2021/03/15 07:05:30;;;;;;;19.80;13.15;;;;;;;;;;5035549;28;20186;-54
2021/03/15 07:07:58;;;;;;;24.00;13.80;;;;;;;;;;5037209;28;20199;-54
2021/03/15 07:10:28;;;;;;;23.88;13.80;;;;;;;;;;5037496;28;20168;-50
2021/03/15 07:13:13;;;;;;;20.08;12.65;;;;;;;;;;5037607;28;20190;-55
2021/03/15 07:15:49;;;;;;;22.20;14.45;;;;;;;;;;5037852;28;20199;-50
2021/03/15 07:18:25;;;;;;;19.17;13.38;;;;;;;;;;5034018;28;20206;-51
2021/03/15 07:20:55;;;;;;;18.43;12.90;;;;;;;;;;5036924;28;20167;-51
2021/03/15 07:23:38;;;;;;;30.10;14.10;;;;;;;;;;5037106;28;20426;-52
2021/03/15 07:26:16;;;;;;;19.55;12.60;;;;;;;;;;5037562;28;20159;-51
2021/03/15 07:28:42;;;;;;;15.77;10.77;;;;;;;;;;5036614;28;20199;-51
2021/03/15 07:31:21;;;;;;;16.77;11.63;;;;;;;;;;5037070;28;20167;-54
2021/03/15 07:33:47;;;;;;;15.93;11.43;;;;;;;;;;5037016;28;20175;-54
2021/03/15 07:36:13;;;;;;;15.35;10.07;;;;;;;;;;5037279;28;20562;-51
2021/03/15 07:38:39;;;;;;;16.42;10.90;;;;;;;;;;5036194;28;20184;-50
2021/03/15 07:41:15;;;;;;;11.47;8.90;;;;;;;;;;5035229;28;20202;-50
2021/03/15 07:43:41;;;;;;;9.83;8.40;;;;;;;;;;5035511;28;20412;-50
2021/03/15 07:46:21;;;;;;;13.63;8.60;;;;;;;;;;5033899;28;20902;-52
2021/03/15 07:48:47;;;;;;;11.73;7.73;;;;;;;;;;4995173;28;20868;-54
2021/03/15 07:51:13;;;;;;;12.00;6.90;;;;;;;;;;4995443;28;20408;-53
2021/03/15 07:53:47;;;;;;;7.90;6.60;;;;;;;;;;4996676;28;20404;-51
2021/03/15 07:56:21;;;;;;;16.53;7.23;;;;;;;;;;4995543;28;20408;-55
2021/03/15 07:58:47;;;;;;;9.53;7.20;;;;;;;;;;4994034;28;21098;-54
2021/03/15 08:01:14;;;;;;;8.67;7.63;;;;;;;;;;4996195;28;20407;-52
2021/03/15 08:03:41;;;;;;;10.00;7.77;;;;;;;;;;4996101;28;20419;-53
2021/03/15 08:06:08;;;;;;;13.50;8.80;;;;;;;;;;4997258;28;20406;-51
2021/03/15 08:08:35;;;;;;;15.13;10.00;;;;;;;;;;4997209;28;20917;-49
2021/03/15 08:11:02;;;;;;;10.53;8.67;;;;;;;;;;4997561;28;20769;-51
2021/03/15 08:13:29;;;;;;;10.87;8.33;;;;;;;;;;4997539;28;20806;-51
2021/03/15 08:15:59;;;;;;;12.50;7.87;;;;;;;;;;4996642;28;20956;-57
2021/03/15 08:18:26;;;;;;;9.90;8.30;;;;;;;;;;5032294;28;20445;-50
2021/03/15 08:20:53;;;;;;;13.50;8.47;;;;;;;;;;5037190;28;20404;-54
2021/03/15 08:23:20;;;;;;;8.40;7.50;;;;;;;;;;5036882;28;20443;-50
2021/03/15 08:25:47;;;;;;;13.27;8.27;;;;;;;;;;5035204;28;20423;-54
2021/03/15 08:28:14;;;;;;;13.40;8.23;;;;;;;;;;5035855;28;20454;-51
2021/03/15 08:30:46;;;;;;;23.57;9.03;;;;;;;;;;5036344;28;20405;-53
2021/03/15 08:33:18;;;;;;;15.70;9.60;;;;;;;;;;5022174;28;20487;-51
2021/03/15 08:35:45;;;;;;;13.25;8.75;;;;;;;;;;5016792;28;20407;-55
2021/03/15 08:38:11;;;;;;;18.55;9.15;;;;;;;;;;5010020;28;20228;-51
2021/03/15 08:40:43;;;;;;;12.20;8.05;;;;;;;;;;5016114;28;20212;-51
2021/03/15 08:43:31;;;;;;;12.00;6.20;;;;;;;;;;5017124;28;20795;-50
2021/03/15 08:46:01;;;;;;;9.63;6.03;;;;;;;;;;5016320;28;20933;-50
2021/03/15 08:48:33;;;;;;;9.57;5.03;;;;;;;;;;5016615;28;20332;-50
2021/03/15 08:51:00;;;;;;;7.67;4.10;;;;;;;;;;5015431;28;20403;-54
2021/03/15 08:53:42;;;;;;;8.63;4.60;;;;;;;;;;5032920;28;20835;-52
2021/03/15 08:56:11;;;;;;;11.37;4.23;;;;;;;;;;5032732;28;20950;-53
2021/03/15 08:58:41;;;;;;;11.60;4.50;;;;;;;;;;5033741;28;20497;-54
2021/03/15 09:01:08;;;;;;;8.43;4.10;;;;;;;;;;5040725;28;20403;-53
2021/03/15 09:03:53;;;;;;;5.20;4.03;;;;;;;;;;5041801;28;20422;-54
2021/03/15 09:06:48;;;;;;;11.63;4.30;;;;;;;;;;5040812;28;20453;-53
2021/03/15 09:09:27;;;;;;;10.33;5.60;;;;;;;;;;5028762;28;20438;-54
2021/03/15 09:11:55;;;;;;;5.53;5.03;;;;;;;;;;5041941;28;20402;-55
2021/03/15 09:14:22;;;;;;;7.03;5.20;;;;;;;;;;5041566;28;20400;-53
2021/03/15 09:16:48;;;;;;;8.30;5.37;;;;;;;;;;5039227;28;20500;-52
2021/03/15 09:19:21;;;;;;;8.43;4.70;;;;;;;;;;5040447;28;20446;-53
2021/03/15 09:21:52;;;;;;;8.83;4.57;;;;;;;;;;5042290;28;20451;-54
2021/03/15 09:24:35;;;;;;;4.20;3.70;;;;;;;;;;5041444;28;20460;-53
2021/03/15 09:27:05;;;;;;;9.20;3.90;;;;;;;;;;5037725;28;20474;-52
2021/03/15 09:29:31;;;;;;;6.70;3.80;;;;;;;;;;5041219;28;20436;-53
2021/03/15 09:32:04;;;;;;;7.73;4.37;;;;;;;;;;5042007;28;20431;-53
2021/03/15 09:34:31;;;;;;;12.27;4.90;;;;;;;;;;5041711;28;20900;-53
2021/03/15 09:36:58;;;;;;;20.83;5.30;;;;;;;;;;5042098;28;20409;-52
2021/03/15 09:39:27;;;;;;;10.07;4.97;;;;;;;;;;5041632;28;20519;-54
2021/03/15 09:41:53;;;;;;;15.60;5.93;;;;;;;;;;5042128;28;20403;-51
2021/03/15 09:44:39;;;;;;;14.53;6.10;;;;;;;;;;5041889;28;20440;-53
2021/03/15 09:47:07;;;;;;;17.57;5.07;;;;;;;;;;5037821;28;20469;-53
2021/03/15 09:49:36;;;;;;;13.83;5.13;;;;;;;;;;5042178;28;20477;-51
2021/03/15 09:52:21;;;;;;;10.23;4.30;;;;;;;;;;5043534;28;20461;-51
2021/03/15 09:54:51;;;;;;;11.20;4.77;;;;;;;;;;5042628;28;20399;-54
2021/03/15 09:57:21;;;;;;;8.27;4.33;;;;;;;;;;5042923;28;20402;-49
2021/03/15 09:59:56;;;;;;;9.83;2.43;;;;;;;;;;5043056;28;20433;-53
2021/03/15 10:02:31;;;;;;;4.17;2.53;;;;;;;;;;5043153;28;20429;-53
2021/03/15 10:04:57;;;;;;;6.40;3.00;;;;;;;;;;5043210;28;20433;-55
2021/03/15 10:07:23;;;;;;;9.13;2.77;;;;;;;;;;5041312;28;20511;-55
2021/03/15 10:10:08;;;;;;;8.30;2.73;;;;;;;;;;5042824;28;20428;-54
2021/03/15 10:12:33;;;;;;;9.30;2.60;;;;;;;;;;5043601;28;20441;-54
2021/03/15 10:15:19;;;;;;;9.00;2.77;;;;;;;;;;5043406;28;20402;-54
2021/03/15 10:17:46;;;;;;;7.27;2.97;;;;;;;;;;5040691;28;20514;-54
2021/03/15 10:20:22;;;;;;;5.03;2.37;;;;;;;;;;5042507;28;20786;-55
2021/03/15 10:22:48;;;;;;;4.03;2.70;;;;;;;;;;5040529;28;20428;-53
2021/03/15 10:25:14;;;;;;;7.00;2.90;;;;;;;;;;5041891;28;20437;-54
2021/03/15 10:27:40;;;;;;;5.17;2.60;;;;;;;;;;5027242;28;20493;-52
2021/03/15 10:30:11;;;;;;;4.13;2.63;;;;;;;;;;5021522;28;20409;-54
2021/03/15 10:32:40;;;;;;;6.23;2.67;;;;;;;;;;5021526;28;20409;-53
2021/03/15 10:35:07;;;;;;;7.27;3.03;;;;;;;;;;5021788;28;20409;-54
2021/03/15 10:37:38;;;;;;;4.63;2.80;;;;;;;;;;5020638;28;20417;-53
2021/03/15 10:40:05;;;;;;;6.07;2.70;;;;;;;;;;5022029;28;20421;-54
2021/03/15 10:42:32;;;;;;;8.90;3.20;;;;;;;;;;5023755;28;21051;-54
2021/03/15 10:45:00;;;;;;;3.30;3.00;;;;;;;;;;5024372;28;20416;-53
2021/03/15 10:47:45;;;;;;;7.50;2.67;;;;;;;;;;5024441;28;20464;-55
2021/03/15 10:50:23;;;;;;;6.73;3.87;;;;;;;;;;5044218;28;20406;-55
2021/03/15 10:52:49;;;;;;;3.43;2.57;;;;;;;;;;5043303;28;20450;-54
2021/03/15 10:55:16;;;;;;;9.03;2.70;;;;;;;;;;5043291;28;20407;-49
2021/03/15 10:58:01;;;;;;;7.63;2.67;;;;;;;;;;5002649;28;20507;-53
2021/03/15 11:00:28;;;;;;;9.40;2.57;;;;;;;;;;4998390;28;20444;-50
2021/03/15 11:02:54;;;;;;;7.27;2.30;;;;;;;;;;4997821;28;20438;-52
2021/03/15 11:05:20;;;;;;;5.93;1.60;;;;;;;;;;4997953;28;20472;-52
2021/03/15 11:07:46;;;;;;;7.57;2.23;;;;;;;;;;4996218;28;20827;-52
2021/03/15 11:10:17;;;;;;;8.50;2.60;;;;;;;;;;4996424;28;20404;-52
2021/03/15 11:12:47;;;;;;;5.57;2.33;;;;;;;;;;4996182;28;20803;-62
2021/03/15 11:15:16;;;;;;;2.97;1.73;;;;;;;;;;4996163;28;20430;-52
2021/03/15 11:17:42;;;;;;;7.83;2.40;;;;;;;;;;4996953;28;20422;-53
2021/03/15 11:20:11;;;;;;;8.83;2.67;;;;;;;;;;5033851;28;20438;-53
2021/03/15 11:22:47;;;;;;;8.07;2.50;;;;;;;;;;5035583;28;20432;-52
2021/03/15 11:25:14;;;;;;;9.80;2.07;;;;;;;;;;5037268;28;20409;-52
2021/03/15 11:27:40;;;;;;;5.80;2.63;;;;;;;;;;5036433;28;20457;-53
2021/03/15 11:30:14;;;;;;;4.47;2.93;;;;;;;;;;5034500;28;20410;-52
2021/03/15 11:32:40;;;;;;;4.87;2.20;;;;;;;;;;5035218;28;20507;-51
2021/03/15 11:35:06;;;;;;;9.13;2.57;;;;;;;;;;5037320;28;20437;-54
2021/03/15 11:37:34;;;;;;;5.30;2.93;;;;;;;;;;5036831;28;20425;-51
2021/03/15 11:40:00;;;;;;;7.30;2.63;;;;;;;;;;5037753;28;20483;-52
2021/03/15 11:42:27;;;;;;;5.10;2.57;;;;;;;;;;5036841;28;20399;-53
2021/03/15 11:44:53;;;;;;;8.90;2.67;;;;;;;;;;5033303;28;20790;-52
2021/03/15 11:47:19;;;;;;;2.90;2.47;;;;;;;;;;5036619;28;20457;-53
2021/03/15 11:49:45;;;;;;;11.53;3.00;;;;;;;;;;5034154;28;20487;-53
2021/03/15 11:52:11;;;;;;;4.53;2.57;;;;;;;;;;5032995;28;20427;-52
2021/03/15 11:54:37;;;;;;;3.97;2.07;;;;;;;;;;5033041;28;20433;-52
2021/03/15 11:57:04;;;;;;;4.43;2.07;;;;;;;;;;5014143;28;20898;-51
2021/03/15 11:59:30;;;;;;;2.60;1.43;;;;;;;;;;5013018;28;20422;-52
2021/03/15 12:01:56;;;;;;;5.30;2.13;;;;;;;;;;5013156;28;20434;-51
2021/03/15 12:04:22;;;;;;;8.80;1.97;;;;;;;;;;5013046;28;20399;-51
2021/03/15 12:06:48;;;;;;;4.37;1.90;;;;;;;;;;5013068;28;20456;-52
2021/03/15 12:09:14;;;;;;;4.07;1.70;;;;;;;;;;5013217;28;20979;-51
2021/03/15 12:11:40;;;;;;;8.00;2.00;;;;;;;;;;5013003;28;20370;-51
2021/03/15 12:14:06;;;;;;;2.30;1.50;;;;;;;;;;5012976;28;20453;-51
2021/03/15 12:16:32;;;;;;;8.40;1.67;;;;;;;;;;5027691;28;20877;-52
2021/03/15 12:18:57;;;;;;;3.80;2.20;;;;;;;;;;5032616;28;20964;-51
2021/03/15 12:21:23;;;;;;;2.23;2.03;;;;;;;;;;5032792;28;20377;-52
2021/03/15 12:23:51;;;;;;;5.17;2.03;;;;;;;;;;5031362;28;20409;-51
2021/03/15 12:26:19;;;;;;;6.20;1.83;;;;;;;;;;5032467;28;20381;-51
2021/03/15 12:28:45;;;;;;;4.10;1.63;;;;;;;;;;5032153;28;20461;-54
2021/03/15 12:31:11;;;;;;;5.43;1.90;;;;;;;;;;5030293;28;20426;-52
2021/03/15 12:33:37;;;;;;;5.77;2.73;;;;;;;;;;5033105;28;20467;-54
2021/03/15 12:36:03;;;;;;;3.97;2.53;;;;;;;;;;5032482;28;20394;-51
2021/03/15 12:38:29;;;;;;;3.27;1.63;;;;;;;;;;5031932;28;20501;-52
2021/03/15 12:40:55;;;;;;;3.13;1.33;;;;;;;;;;5032168;28;21158;-51
2021/03/15 12:43:21;;;;;;;5.30;1.73;;;;;;;;;;5032117;28;20927;-51
2021/03/15 12:45:47;;;;;;;1.63;1.50;;;;;;;;;;5032388;28;20409;-52
2021/03/15 12:48:13;;;;;;;1.40;1.30;;;;;;;;;;5031729;28;20544;-51
2021/03/15 12:50:39;;;;;;;1.53;1.13;;;;;;;;;;5028727;28;20401;-51
2021/03/15 12:53:05;;;;;;;8.23;2.43;;;;;;;;;;5032328;28;20377;-54
2021/03/15 12:55:31;;;;;;;5.30;1.50;;;;;;;;;;5032790;28;20406;-54
2021/03/15 12:57:57;;;;;;;5.93;1.73;;;;;;;;;;5032719;28;20414;-52
2021/03/15 13:00:23;;;;;;;1.90;1.80;;;;;;;;;;5035215;28;20831;-52
2021/03/15 13:02:49;;;;;;;7.70;3.07;;;;;;;;;;5034374;28;20934;-54
2021/03/15 13:05:15;;;;;;;3.67;2.10;;;;;;;;;;5034963;28;20433;-53
2021/03/15 13:07:41;;;;;;;4.97;1.77;;;;;;;;;;5035057;28;20468;-54
2021/03/15 13:10:07;;;;;;;3.70;2.20;;;;;;;;;;5035217;28;20396;-53
2021/03/15 13:12:33;;;;;;;1.50;1.40;;;;;;;;;;5034749;28;20413;-54
2021/03/15 13:14:59;;;;;;;2.70;1.67;;;;;;;;;;5034195;28;20406;-52
2021/03/15 13:17:27;;;;;;;4.07;1.80;;;;;;;;;;5028916;28;20434;-52
2021/03/15 13:19:53;;;;;;;3.37;2.20;;;;;;;;;;5031425;28;20933;-52
2021/03/15 13:22:19;;;;;;;3.97;1.70;;;;;;;;;;5032100;28;20497;-53
2021/03/15 13:24:45;;;;;;;2.10;1.67;;;;;;;;;;5032000;28;20418;-53
2021/03/15 13:27:11;;;;;;;3.10;1.67;;;;;;;;;;5032393;28;20548;-53
2021/03/15 13:29:38;;;;;;;8.53;2.27;;;;;;;;;;5033184;28;20449;-52
2021/03/15 13:32:04;;;;;;;2.10;1.90;;;;;;;;;;5035507;28;20420;-49
2021/03/15 13:34:30;;;;;;;10.90;2.27;;;;;;;;;;5035484;28;20750;-51
2021/03/15 13:36:56;;;;;;;7.10;2.27;;;;;;;;;;5034733;28;20424;-53
2021/03/15 13:39:22;;;;;;;6.70;3.00;;;;;;;;;;5034559;28;20432;-54
2021/03/15 13:41:48;;;;;;;4.03;2.13;;;;;;;;;;5034777;28;20405;-49
2021/03/15 13:44:14;;;;;;;6.17;2.70;;;;;;;;;;5035628;28;20398;-52
2021/03/15 13:46:40;;;;;;;2.73;1.70;;;;;;;;;;5031390;28;20937;-50
2021/03/15 13:49:06;;;;;;;4.13;2.03;;;;;;;;;;5033577;28;20479;-52
2021/03/15 13:51:32;;;;;;;3.63;2.30;;;;;;;;;;5034979;28;21229;-50
2021/03/15 13:53:58;;;;;;;3.60;1.60;;;;;;;;;;5034211;28;20435;-50
2021/03/15 13:56:24;;;;;;;6.10;2.17;;;;;;;;;;5031882;28;21095;-50
2021/03/15 13:58:51;;;;;;;2.80;1.97;;;;;;;;;;5030753;28;20536;-50
2021/03/15 14:01:17;;;;;;;2.07;1.47;;;;;;;;;;5030806;28;20457;-53
2021/03/15 14:03:43;;;;;;;1.50;1.40;;;;;;;;;;5031044;28;20832;-52
2021/03/15 14:06:09;;;;;;;2.03;1.20;;;;;;;;;;5031095;28;20866;-54
2021/03/15 14:08:35;;;;;;;6.67;1.87;;;;;;;;;;5030643;28;20983;-48
2021/03/15 14:11:01;;;;;;;2.90;1.40;;;;;;;;;;5030951;28;20455;-48
2021/03/15 14:13:27;;;;;;;4.67;1.47;;;;;;;;;;5031232;28;20425;-51
2021/03/15 14:15:53;;;;;;;4.00;1.70;;;;;;;;;;5028402;28;20432;-50
2021/03/15 14:18:19;;;;;;;3.33;1.83;;;;;;;;;;5031346;28;20425;-51
2021/03/15 14:20:45;;;;;;;3.67;1.90;;;;;;;;;;5030555;28;20466;-52
2021/03/15 14:23:11;;;;;;;3.03;1.73;;;;;;;;;;5029291;28;21082;-50
2021/03/15 14:25:37;;;;;;;3.67;1.93;;;;;;;;;;5031347;28;20406;-53
2021/03/15 14:28:05;;;;;;;1.80;1.50;;;;;;;;;;5031021;28;20467;-50
2021/03/15 14:30:31;;;;;;;4.27;1.80;;;;;;;;;;5032887;28;20398;-56
2021/03/15 14:32:57;;;;;;;11.80;2.13;;;;;;;;;;5034873;28;20413;-50
2021/03/15 14:35:23;;;;;;;5.00;1.80;;;;;;;;;;5034678;28;20955;-52
2021/03/15 14:37:49;;;;;;;2.83;1.93;;;;;;;;;;5034059;28;20419;-50
2021/03/15 14:40:16;;;;;;;4.33;2.70;;;;;;;;;;5033881;28;20452;-50